KPNE/PNE METAR and TAF weather

Enter ICAO airport designator
Station Type Date Time Source
KPNE METAR 2022/06/28 08:54 UTC NOAA

KPNE 280854Z 36006KT 10SM OVC055 19/14 A3010 RMK AO2 SLP192 T01940139 51019 $


Station Type Date Time Source
KPNE Decoded METAR 2022/06/28 08:54 UTC NOAA

N.E. PHILADELPHIA AIRPORT, PA, United States (KPNE) 40-05N 075-01W 28M
Jun 28, 2022 - 04:54 AM EDT / 2022.06.28 0854 UTC
Wind: from the N (360 degrees) at 7 MPH (6 KT):0
Visibility: 10 mile(s):0
Sky conditions: overcast
Temperature: 66.9 F (19.4 C)
Dew Point: 57.0 F (13.9 C)
Relative Humidity: 70%
Pressure (altimeter): 30.1 in. Hg (1019 hPa)
Pressure tendency: 0.06 inches (1.9 hPa) higher than three hours ago
ob: KPNE 280854Z 36006KT 10SM OVC055 19/14 A3010 RMK AO2 SLP192 T01940139 51019
cycle: 9

Station Type Date Time Source
KPNE TAF 2022/06/28 06:22 UTC NOAA

TAF KPNE 280520Z 2806/2906 33008KT P6SM SCT250
FM281300 35010KT P6SM SKC
FM281700 30008KT P6SM SKC
FM282300 VRB03KT P6SM SKC

Example: see airport list